createdAt,value
2023-04-13T06:06:08.765Z,1.70
2023-04-13T06:08:38.068Z,6.57
2023-04-13T06:11:06.976Z,6.93
2023-04-13T06:13:35.570Z,7.57
2023-04-13T06:16:03.986Z,9.60
2023-04-13T06:18:32.230Z,7.83
2023-04-13T06:21:00.526Z,8.23
2023-04-13T06:23:30.306Z,8.80
2023-04-13T06:26:05.575Z,9.17
2023-04-13T06:28:43.830Z,6.67
2023-04-13T06:31:18.290Z,3.80
2023-04-13T06:33:51.155Z,7.10
2023-04-13T06:36:25.709Z,4.70
2023-04-13T06:38:57.282Z,5.37
2023-04-13T06:41:27.272Z,2.93
2023-04-13T06:44:12.259Z,4.00
2023-04-13T06:46:51.809Z,5.87
2023-04-13T06:49:22.212Z,4.60
2023-04-13T06:51:52.216Z,4.30
2023-04-13T06:54:22.058Z,6.20
2023-04-13T06:56:57.565Z,3.83
2023-04-13T06:59:26.060Z,4.30
2023-04-13T07:01:54.612Z,1.43
2023-04-13T07:04:25.709Z,3.50
2023-04-13T07:06:59.473Z,2.93
2023-04-13T07:09:29.805Z,2.53
2023-04-13T07:11:58.872Z,3.87
2023-04-13T07:14:27.355Z,3.50
2023-04-13T07:16:55.622Z,2.93
2023-04-13T07:19:25.715Z,4.47
2023-04-13T07:21:54.198Z,2.97
2023-04-13T07:24:23.866Z,1.83
2023-04-13T07:26:53.826Z,4.40
2023-04-13T07:29:22.625Z,3.77
2023-04-13T07:32:00.675Z,2.27
2023-04-13T07:34:30.932Z,2.77
2023-04-13T07:36:59.411Z,2.77
2023-04-13T07:39:28.000Z,2.17
2023-04-13T07:41:58.633Z,1.50
2023-04-13T07:44:35.557Z,2.30
2023-04-13T07:47:04.365Z,2.77
2023-04-13T07:49:34.140Z,2.83
2023-04-13T07:52:02.421Z,1.97
2023-04-13T07:54:35.128Z,1.00
2023-04-13T07:57:05.708Z,2.77
2023-04-13T07:59:36.513Z,3.27
2023-04-13T08:02:05.771Z,2.90
2023-04-13T08:04:36.902Z,2.87
2023-04-13T08:07:07.366Z,2.13
2023-04-13T08:09:37.403Z,1.23
2023-04-13T08:12:08.327Z,2.80
2023-04-13T08:14:42.665Z,3.97
2023-04-13T08:17:12.481Z,3.43
2023-04-13T08:19:41.619Z,2.13
2023-04-13T08:22:14.848Z,2.20
2023-04-13T08:24:44.252Z,2.13
2023-04-13T08:27:14.097Z,1.33
2023-04-13T08:29:42.432Z,1.70
2023-04-13T08:32:10.987Z,2.57
2023-04-13T08:34:39.981Z,2.10
2023-04-13T08:37:08.385Z,1.90
2023-04-13T08:39:38.148Z,2.13
2023-04-13T08:42:08.160Z,2.30
2023-04-13T08:44:43.045Z,2.23
2023-04-13T08:47:12.015Z,1.73
2023-04-13T08:49:40.927Z,1.10
2023-04-13T08:52:11.587Z,1.20
2023-04-13T08:54:42.654Z,0.93
2023-04-13T08:57:19.444Z,1.13
2023-04-13T08:59:51.260Z,1.10
2023-04-13T09:02:24.646Z,0.80
2023-04-13T09:05:01.005Z,1.73
2023-04-13T09:07:34.855Z,1.60
2023-04-13T09:10:10.144Z,1.77
2023-04-13T09:12:42.317Z,1.23
2023-04-13T09:15:15.000Z,1.03
2023-04-13T09:17:57.308Z,1.00
2023-04-13T09:20:25.856Z,1.20
2023-04-13T09:22:54.477Z,1.40
2023-04-13T09:25:24.571Z,1.17
2023-04-13T09:30:40.428Z,0.90
2023-04-13T09:33:10.808Z,0.80
2023-04-13T09:35:39.708Z,0.83
2023-04-13T09:38:09.010Z,0.90
2023-04-13T09:40:39.155Z,1.00
2023-04-13T09:43:09.705Z,0.80
2023-04-13T09:45:39.198Z,1.13
2023-04-13T09:48:19.178Z,1.83
2023-04-13T09:50:47.813Z,0.93
2023-04-13T09:53:16.116Z,1.30
2023-04-13T09:55:47.637Z,1.00
2023-04-13T09:58:17.769Z,1.10
2023-04-13T10:00:47.548Z,1.20
2023-04-13T10:03:19.169Z,1.17
2023-04-13T10:08:27.364Z,1.03
2023-04-13T10:11:04.405Z,0.93
2023-04-13T10:13:38.434Z,1.23
2023-04-13T10:16:33.793Z,0.90
2023-04-13T10:19:06.685Z,0.70
2023-04-13T10:21:39.528Z,0.90
2023-04-13T10:24:12.211Z,0.80
2023-04-13T10:26:41.769Z,1.30
2023-04-13T10:29:11.718Z,0.90
2023-04-13T10:31:41.532Z,0.87
2023-04-13T10:34:11.356Z,1.10
2023-04-13T10:36:41.797Z,0.80
2023-04-13T10:39:10.674Z,1.30
2023-04-13T10:41:39.113Z,1.03
2023-04-13T10:44:08.698Z,0.77
2023-04-13T10:46:37.267Z,1.03
2023-04-13T10:49:06.825Z,1.40
2023-04-13T10:51:43.692Z,0.87
2023-04-13T10:54:14.965Z,0.80
2023-04-13T10:56:43.254Z,0.53
2023-04-13T10:59:12.117Z,0.70
2023-04-13T11:01:41.384Z,1.10
2023-04-13T11:04:14.029Z,0.93
2023-04-13T11:06:46.918Z,0.50
2023-04-13T11:09:17.248Z,0.60
2023-04-13T11:11:52.682Z,0.80
2023-04-13T11:14:24.283Z,0.80
2023-04-13T11:16:58.320Z,0.90
2023-04-13T11:19:27.273Z,0.60
2023-04-13T11:21:58.282Z,0.70
2023-04-13T11:24:33.889Z,0.70
2023-04-13T11:27:02.418Z,0.70
2023-04-13T11:29:30.730Z,0.80
2023-04-13T11:31:59.107Z,0.90
2023-04-13T11:34:28.842Z,1.00
2023-04-13T11:37:05.308Z,1.33
2023-04-13T11:39:38.809Z,0.83
2023-04-13T11:42:08.194Z,0.80
2023-04-13T11:44:36.966Z,0.90
2023-04-13T11:47:06.082Z,0.87
2023-04-13T11:49:34.623Z,0.80
2023-04-13T11:52:05.271Z,0.80
2023-04-13T11:54:33.651Z,1.17
2023-04-13T11:57:02.560Z,0.87
2023-04-13T11:59:30.861Z,1.10
2023-04-13T12:02:03.840Z,0.90
2023-04-13T12:04:50.080Z,0.70
2023-04-13T12:07:20.971Z,0.97
2023-04-13T12:15:12.694Z,0.73
2023-04-13T12:17:50.095Z,0.80
2023-04-13T12:20:26.363Z,0.73
2023-04-13T12:23:05.834Z,0.60
2023-04-13T12:25:36.928Z,0.50
2023-04-13T12:28:05.776Z,0.63
2023-04-13T12:30:34.239Z,0.50
2023-04-13T12:33:02.618Z,0.70
2023-04-13T12:35:31.132Z,0.60
2023-04-13T12:38:00.784Z,0.60
2023-04-13T12:40:29.187Z,0.60
2023-04-13T12:42:57.432Z,0.50
2023-04-13T12:45:28.522Z,0.60
2023-04-13T12:47:56.773Z,0.60
2023-04-13T12:50:25.126Z,0.60
2023-04-13T12:52:53.394Z,0.70
2023-04-13T12:55:24.024Z,0.60
2023-04-13T12:57:52.328Z,0.80
2023-04-13T13:00:22.676Z,0.80
2023-04-13T13:02:56.652Z,0.90
2023-04-13T13:05:35.103Z,0.60
2023-04-13T13:08:03.510Z,0.80
2023-04-13T13:10:33.836Z,0.90
2023-04-13T13:13:04.037Z,1.00
2023-04-13T13:15:32.914Z,1.07
2023-04-13T13:18:04.084Z,0.80
2023-04-13T13:20:32.507Z,0.87
2023-04-13T13:23:00.703Z,0.83
2023-04-13T13:25:28.968Z,1.10
2023-04-13T13:28:13.410Z,1.03
2023-04-13T13:30:44.271Z,1.47
2023-04-13T13:33:12.818Z,0.80
2023-04-13T13:35:41.109Z,0.80
2023-04-13T13:38:09.358Z,1.10
2023-04-13T13:40:38.780Z,0.93
2023-04-13T13:43:08.879Z,1.00
2023-04-13T13:45:37.440Z,1.00
2023-04-13T13:48:07.025Z,0.90
2023-04-13T13:50:46.979Z,1.93
2023-04-13T13:53:15.925Z,1.40
2023-04-13T13:55:44.202Z,1.50
2023-04-13T13:58:13.892Z,1.20
2023-04-13T14:00:42.742Z,1.43
2023-04-13T14:03:11.976Z,1.03
2023-04-13T14:05:53.978Z,1.07
2023-04-13T14:08:22.380Z,1.33
2023-04-13T14:10:53.071Z,1.70
2023-04-13T14:13:23.344Z,2.10
2023-04-13T14:16:03.724Z,1.50
2023-04-13T14:18:33.981Z,1.27
2023-04-13T14:21:05.801Z,2.03
2023-04-13T14:23:37.565Z,1.50
2023-04-13T14:26:07.537Z,1.83
2023-04-13T14:28:39.418Z,2.20
2023-04-13T14:31:09.819Z,1.50
2023-04-13T14:33:40.707Z,2.37
2023-04-13T14:36:11.099Z,1.40
2023-04-13T14:38:39.314Z,2.30
2023-04-13T14:41:07.960Z,1.27
2023-04-13T14:43:40.331Z,1.83
2023-04-13T14:46:11.362Z,1.20
2023-04-13T14:48:40.126Z,1.20
2023-04-13T14:51:08.901Z,1.17
2023-04-13T14:53:37.233Z,1.67
2023-04-13T14:56:05.820Z,1.63
2023-04-13T14:58:34.137Z,1.60
2023-04-13T15:01:04.892Z,1.80
2023-04-13T15:03:33.778Z,1.90
2023-04-13T15:06:03.813Z,1.10
2023-04-13T15:08:34.067Z,1.30
2023-04-13T15:11:02.407Z,1.43
2023-04-13T15:13:30.686Z,1.53
2023-04-13T15:15:59.560Z,1.50
2023-04-13T15:18:32.796Z,1.60
2023-04-13T15:21:05.856Z,1.60
2023-04-13T15:23:35.351Z,1.53
2023-04-13T15:26:06.167Z,1.57
2023-04-13T15:28:34.618Z,1.80
2023-04-13T15:31:04.232Z,1.27
2023-04-13T15:33:35.058Z,2.50
2023-04-13T15:36:03.780Z,2.30
2023-04-13T15:38:31.983Z,2.60
2023-04-13T15:41:01.612Z,2.27
2023-04-13T15:43:32.818Z,1.30
2023-04-13T15:46:02.948Z,2.30
2023-04-13T15:48:31.714Z,1.83
2023-04-13T15:51:04.573Z,1.60
2023-04-13T15:53:32.945Z,2.27
2023-04-13T15:56:01.837Z,1.40
2023-04-13T15:58:33.333Z,1.30
2023-04-13T16:01:03.581Z,1.87
2023-04-13T16:03:32.529Z,1.37
2023-04-13T16:06:02.666Z,2.40
2023-04-13T16:08:31.393Z,2.00
2023-04-13T16:11:01.413Z,2.17
2023-04-13T16:13:47.355Z,2.17
2023-04-13T16:16:17.823Z,2.57
2023-04-13T16:18:46.296Z,2.10
2023-04-13T16:21:19.678Z,2.70
2023-04-13T16:23:52.859Z,2.60
2023-04-13T16:26:25.598Z,2.70
2023-04-13T16:28:55.352Z,2.90
2023-04-13T16:31:26.725Z,3.60
2023-04-13T16:33:57.900Z,3.33
2023-04-13T16:36:37.372Z,3.50
2023-04-13T16:39:16.221Z,3.80
2023-04-13T16:41:44.855Z,3.03
2023-04-13T16:44:41.181Z,2.33
2023-04-13T16:47:12.571Z,2.37
2023-04-13T16:50:01.358Z,2.53
2023-04-13T16:52:31.387Z,2.87
2023-04-13T16:55:00.032Z,2.50
2023-04-13T16:57:29.631Z,2.53
2023-04-13T17:00:06.959Z,3.10
2023-04-13T17:02:38.478Z,1.90
2023-04-13T17:05:09.315Z,1.97
2023-04-13T17:07:42.210Z,2.30
2023-04-13T17:10:13.028Z,2.33
2023-04-13T17:12:41.912Z,2.80
2023-04-13T17:15:12.350Z,2.40
2023-04-13T17:17:41.379Z,2.77
2023-04-13T17:20:16.782Z,2.60
2023-04-13T17:22:48.942Z,2.13
2023-04-13T17:25:20.216Z,2.40
2023-04-13T17:27:50.435Z,1.77
2023-04-13T17:30:22.844Z,1.60
2023-04-13T17:32:51.653Z,2.10
2023-04-13T17:35:22.069Z,2.73
2023-04-13T17:37:54.559Z,2.40
2023-04-13T17:40:25.038Z,2.50
2023-04-13T17:42:54.121Z,2.40
2023-04-13T17:45:22.606Z,2.27
2023-04-13T17:47:51.736Z,2.13
2023-04-13T17:50:20.566Z,2.30
2023-04-13T17:52:49.364Z,1.80
2023-04-13T17:55:25.184Z,2.27
2023-04-13T17:57:53.901Z,1.60
2023-04-13T18:00:22.726Z,3.40
2023-04-13T18:02:54.836Z,2.00
2023-04-13T18:05:25.761Z,3.20
2023-04-13T18:07:59.406Z,3.20
2023-04-13T18:10:31.082Z,3.27
2023-04-13T18:13:01.503Z,3.50
2023-04-13T18:15:30.464Z,4.40
2023-04-13T18:18:04.894Z,4.97
2023-04-13T18:20:40.529Z,4.80
2023-04-13T18:23:15.174Z,4.63
2023-04-13T18:25:45.561Z,3.63
2023-04-13T18:28:21.287Z,3.50
2023-04-13T18:30:53.330Z,3.30
2023-04-13T18:33:22.938Z,3.20
2023-04-13T18:36:02.640Z,3.40
2023-04-13T18:38:34.899Z,4.03
2023-04-13T18:41:08.898Z,3.40
2023-04-13T18:43:38.408Z,3.10
2023-04-13T18:46:12.044Z,4.80
2023-04-13T18:48:44.231Z,4.80
2023-04-13T18:51:23.595Z,5.30
2023-04-13T18:53:54.432Z,5.23
2023-04-13T18:56:28.052Z,5.97
2023-04-13T18:58:57.161Z,6.80
2023-04-13T19:01:27.052Z,8.00
2023-04-13T19:03:56.835Z,8.87
2023-04-13T19:06:26.427Z,8.43
2023-04-13T19:08:56.649Z,9.30
2023-04-13T19:11:27.948Z,7.13
2023-04-13T19:13:58.131Z,8.30
2023-04-13T19:16:29.504Z,7.00
2023-04-13T19:19:00.502Z,6.20
2023-04-13T19:21:29.765Z,5.23
2023-04-13T19:23:59.780Z,5.53
2023-04-13T19:26:31.310Z,7.00
2023-04-13T19:29:01.633Z,7.20
2023-04-13T19:31:34.572Z,6.50
2023-04-13T19:34:05.512Z,6.83
2023-04-13T19:36:36.083Z,6.37
2023-04-13T19:39:06.345Z,6.80
2023-04-13T19:41:39.270Z,6.37
2023-04-13T19:44:09.585Z,5.87
2023-04-13T19:46:39.757Z,6.47
2023-04-13T19:49:09.122Z,5.50
2023-04-13T19:51:38.260Z,4.90
2023-04-13T19:54:07.484Z,3.37
2023-04-13T19:56:39.436Z,4.30
2023-04-13T19:59:10.107Z,4.20
2023-04-13T20:01:41.236Z,4.43
2023-04-13T20:04:13.686Z,4.87
2023-04-13T20:06:44.310Z,5.77
2023-04-13T20:09:14.996Z,5.13
2023-04-13T20:11:48.293Z,5.57
2023-04-13T20:14:21.463Z,6.07
2023-04-13T20:16:55.709Z,5.80
2023-04-13T20:19:37.358Z,6.40
2023-04-13T20:22:21.600Z,6.47
2023-04-13T20:25:06.914Z,5.93
2023-04-13T20:27:42.988Z,5.60
2023-04-13T20:30:18.532Z,6.70
2023-04-13T20:32:50.409Z,6.70
2023-04-13T20:35:21.210Z,7.17
2023-04-13T20:41:08.357Z,6.60
2023-04-13T20:43:41.467Z,6.83
2023-04-13T20:46:11.011Z,6.10
2023-04-13T20:51:13.468Z,2.93
2023-04-13T20:53:41.806Z,1.80
2023-04-13T20:56:10.038Z,3.10
2023-04-13T20:58:43.713Z,4.20
2023-04-13T21:01:12.154Z,1.90
2023-04-13T21:03:41.096Z,1.67
2023-04-13T21:06:09.706Z,1.70
2023-04-13T21:08:38.332Z,0.73
2023-04-13T21:11:07.280Z,0.63
2023-04-13T21:13:35.837Z,0.60
2023-04-13T21:16:07.083Z,1.33
2023-04-13T21:18:35.460Z,0.73
2023-04-13T21:21:03.770Z,0.30
2023-04-13T21:23:31.954Z,0.30
2023-04-13T21:26:00.258Z,0.30
2023-04-13T21:28:28.525Z,0.93
2023-04-13T21:30:56.760Z,1.03
2023-04-13T21:33:26.705Z,0.50
2023-04-13T21:35:54.998Z,0.40
2023-04-13T21:38:23.484Z,0.30
2023-04-13T21:40:51.701Z,0.30
2023-04-13T21:43:20.184Z,0.30
2023-04-13T21:45:48.569Z,0.47
2023-04-13T21:48:17.245Z,0.60
2023-04-13T21:50:47.747Z,0.60
2023-04-13T21:53:16.111Z,0.60
2023-04-13T21:55:44.429Z,0.60
2023-04-13T21:58:12.964Z,0.70
2023-04-13T22:00:43.382Z,0.50
2023-04-13T22:03:13.334Z,0.40
2023-04-13T22:05:42.952Z,0.40
2023-04-13T22:08:12.739Z,0.50
2023-04-13T22:10:41.194Z,0.60
2023-04-13T22:13:09.545Z,0.50
2023-04-13T22:15:38.003Z,0.47
2023-04-13T22:18:06.721Z,0.80
2023-04-13T22:20:34.989Z,0.50
2023-04-13T22:23:03.284Z,0.40
2023-04-13T22:25:33.023Z,0.40
2023-04-13T22:28:01.338Z,0.30
2023-04-13T22:30:29.971Z,0.30
2023-04-13T22:32:58.360Z,0.40
2023-04-13T22:35:27.419Z,0.40
2023-04-13T22:37:56.212Z,0.30
2023-04-13T22:40:24.775Z,0.30
2023-04-13T22:42:55.965Z,0.40
2023-04-13T22:45:24.371Z,0.50
2023-04-13T22:47:54.597Z,0.43
2023-04-13T22:50:22.980Z,0.40
2023-04-13T22:52:53.331Z,0.40
2023-04-13T22:55:21.750Z,0.30
2023-04-13T22:57:50.056Z,1.00
2023-04-13T23:00:20.869Z,0.30
2023-04-13T23:02:50.725Z,0.40
2023-04-13T23:05:21.580Z,0.30
2023-04-13T23:07:50.537Z,0.30
2023-04-13T23:10:19.360Z,0.30
2023-04-13T23:12:47.840Z,0.30
2023-04-13T23:15:16.383Z,0.30
2023-04-13T23:17:46.318Z,0.30
2023-04-13T23:20:15.490Z,0.30
2023-04-13T23:22:45.717Z,0.27
2023-04-13T23:25:14.060Z,0.40
2023-04-13T23:27:42.579Z,0.40
2023-04-13T23:30:11.729Z,0.27
2023-04-13T23:32:40.054Z,0.30
2023-04-13T23:35:10.729Z,0.33
2023-04-13T23:37:40.512Z,0.40
2023-04-13T23:40:10.939Z,0.30
2023-04-13T23:42:39.142Z,0.50
2023-04-13T23:45:08.938Z,0.30
2023-04-13T23:47:38.040Z,0.20
2023-04-13T23:50:07.754Z,0.40
2023-04-13T23:52:37.379Z,0.30
2023-04-13T23:55:06.284Z,0.20
2023-04-13T23:57:35.243Z,0.30
